Time;durP1;ratioP1;P1;durP2;ratioP2;P2;SDS_P1;SDS_P2;PMS_P1;PMS_P2;Temp;Humidity;BMP_temperature;BMP_pressure;BME280_temperature;BME280_humidity;BME280_pressure;Samples;Min_cycle;Max_cycle;Signal;HPM_P1;HPM_P2
2024/01/30 00:02:20;;;;;;;62.10;56.20;;;;;;;-1.94;98.66;99656.33;107735;1286;23547;-90
2024/01/30 00:04:52;;;;;;;57.70;51.90;;;;;;;-1.99;98.04;99653.06;107571;1286;22561;-91
2024/01/30 00:07:20;;;;;;;57.10;51.60;;;;;;;-1.97;97.49;99654.24;107697;1270;22577;-88
2024/01/30 00:09:48;;;;;;;61.30;55.10;;;;;;;-1.93;97.14;99653.70;107766;1286;22543;-92
2024/01/30 00:12:16;;;;;;;65.10;58.20;;;;;;;-1.95;97.00;99652.77;107537;1286;22616;-92
2024/01/30 00:14:44;;;;;;;58.90;53.10;;;;;;;-2.03;97.15;99649.27;108685;1267;23219;-91
2024/01/30 00:17:12;;;;;;;59.20;53.50;;;;;;;-2.11;97.20;99650.19;108134;1274;22505;-93
2024/01/30 00:19:40;;;;;;;63.10;57.10;;;;;;;-2.16;97.57;99652.00;108967;1286;22623;-90
2024/01/30 00:22:08;;;;;;;72.50;65.80;;;;;;;-2.19;98.57;99652.75;109212;1271;22613;-92
2024/01/30 00:24:37;;;;;;;55.40;50.00;;;;;;;-2.22;97.99;99645.01;109108;1286;22653;-92
2024/01/30 00:27:04;;;;;;;56.20;50.60;;;;;;;-2.22;98.52;99645.00;108800;1286;22562;-88
2024/01/30 00:29:33;;;;;;;55.80;50.10;;;;;;;-2.23;98.38;99645.97;106619;1281;22784;-87
2024/01/30 00:32:02;;;;;;;54.90;49.30;;;;;;;-2.23;98.01;99645.45;106567;1274;22674;-92
2024/01/30 00:34:30;;;;;;;55.80;50.10;;;;;;;-2.24;97.97;99654.16;107075;1272;22565;-88
2024/01/30 00:36:58;;;;;;;55.30;49.80;;;;;;;-2.26;97.88;99647.04;107359;1275;22644;-93
2024/01/30 00:39:26;;;;;;;54.40;49.00;;;;;;;-2.26;97.72;99646.15;107714;1284;22554;-88
2024/01/30 00:41:54;;;;;;;55.60;49.80;;;;;;;-2.35;97.27;99647.09;108854;1287;22561;-89
2024/01/30 00:44:22;;;;;;;53.50;48.20;;;;;;;-2.36;97.89;99647.52;108994;1280;22067;-90
2024/01/30 00:46:50;;;;;;;50.30;45.10;;;;;;;-2.37;98.49;99649.83;109571;1267;22635;-83
2024/01/30 00:49:18;;;;;;;49.70;44.60;;;;;;;-2.38;98.72;99648.29;109547;1267;22563;-87
2024/01/30 00:51:51;;;;;;;53.50;47.80;;;;;;;-2.38;98.49;99645.48;109729;1260;22292;31
2024/01/30 00:54:19;;;;;;;54.70;48.90;;;;;;;-2.42;99.90;99648.23;109714;1267;22572;-92
2024/01/30 00:56:52;;;;;;;64.10;58.00;;;;;;;-2.50;99.90;99642.63;109829;1269;22422;31
2024/01/30 00:59:20;;;;;;;65.40;51.70;;;;;;;-2.53;99.97;99639.84;109664;1268;22602;-89
2024/01/30 01:01:48;;;;;;;48.10;43.00;;;;;;;-2.57;99.29;99635.36;109620;1286;22596;-90
2024/01/30 01:04:17;;;;;;;89.50;81.30;;;;;;;-2.56;98.92;99631.46;108385;1264;23025;-91
2024/01/30 01:06:45;;;;;;;60.60;54.40;;;;;;;-2.47;98.86;99628.06;108586;1277;22585;-87
2024/01/30 01:09:13;;;;;;;70.70;53.80;;;;;;;-2.42;98.29;99627.84;109012;1277;22562;-91
2024/01/30 01:11:41;;;;;;;64.80;53.80;;;;;;;-2.48;98.41;99624.48;108072;1286;22560;-90
2024/01/30 01:14:09;;;;;;;81.70;74.10;;;;;;;-2.57;98.34;99629.13;109494;1286;22584;-86
2024/01/30 01:16:37;;;;;;;69.80;62.90;;;;;;;-2.59;98.62;99626.27;109116;1286;23919;-91
2024/01/30 01:19:05;;;;;;;68.20;59.40;;;;;;;-2.61;98.60;99626.31;108756;1280;22586;-85
2024/01/30 01:21:33;;;;;;;61.50;53.70;;;;;;;-2.70;98.54;99621.30;108962;1287;24912;-92
2024/01/30 01:24:01;;;;;;;56.40;50.30;;;;;;;-2.72;98.24;99628.73;108829;1287;22570;-89
2024/01/30 01:26:29;;;;;;;54.30;48.60;;;;;;;-2.73;99.04;99625.36;108831;1284;22571;-92
2024/01/30 01:28:57;;;;;;;55.80;47.60;;;;;;;-2.80;99.20;99627.34;108486;1278;23673;-91
2024/01/30 01:31:25;;;;;;;53.60;47.70;;;;;;;-2.85;99.00;99632.02;107910;1287;24968;-89
2024/01/30 01:33:53;;;;;;;60.70;52.60;;;;;;;-2.92;98.45;99631.45;107168;1283;22639;-86
2024/01/30 01:36:21;;;;;;;108.80;92.20;;;;;;;-2.99;98.26;99628.38;106556;1277;22602;-88
2024/01/30 01:38:49;;;;;;;68.80;61.60;;;;;;;-3.02;98.59;99627.34;106536;1284;22544;-89
2024/01/30 01:41:17;;;;;;;56.80;51.10;;;;;;;-3.00;98.85;99628.48;106499;1272;24126;-86
2024/01/30 01:43:45;;;;;;;74.40;62.20;;;;;;;-2.94;98.85;99618.88;106536;1268;27703;-85
2024/01/30 01:46:13;;;;;;;67.70;48.70;;;;;;;-3.03;99.22;99614.38;108747;1282;25491;-89
2024/01/30 01:48:49;;;;;;;65.60;52.80;;;;;;;-3.15;99.68;99611.67;109165;1271;23994;31
2024/01/30 01:51:26;;;;;;;69.60;53.40;;;;;;;-3.18;99.62;99615.33;109849;1270;22298;31
2024/01/30 01:53:59;;;;;;;64.70;57.20;;;;;;;-3.26;99.43;99611.05;108673;1270;22563;-91
2024/01/30 01:56:27;;;;;;;68.90;55.80;;;;;;;-3.28;98.93;99612.18;108944;1286;22840;-89
2024/01/30 01:59:00;;;;;;;57.00;51.30;;;;;;;-3.32;98.98;99609.89;108495;1274;22714;-90
2024/01/30 02:01:28;;;;;;;55.40;47.50;;;;;;;-3.37;98.96;99608.45;108058;1277;22558;-91
2024/01/30 02:03:57;;;;;;;52.40;44.80;;;;;;;-3.37;98.87;99604.39;107475;1283;22844;-90
2024/01/30 02:06:26;;;;;;;58.40;52.10;;;;;;;-3.34;98.81;99601.91;106955;1285;22604;-89
2024/01/30 02:08:54;;;;;;;55.70;49.70;;;;;;;-3.31;99.04;99599.67;107433;1285;25299;-90
2024/01/30 02:11:23;;;;;;;55.90;48.20;;;;;;;-3.29;99.18;99598.77;108658;1273;22515;-91
2024/01/30 02:13:52;;;;;;;57.10;48.30;;;;;;;-3.31;99.96;99597.56;109136;1269;22544;-91
2024/01/30 02:16:27;;;;;;;53.70;46.30;;;;;;;-3.33;100.00;99602.17;109990;1266;22247;31
2024/01/30 02:19:01;;;;;;;53.90;45.90;;;;;;;-3.30;100.00;99603.81;102004;1270;22825;31
2024/01/30 02:21:35;;;;;;;49.40;44.10;;;;;;;-3.27;100.00;99599.77;109791;1270;22265;31
2024/01/30 02:24:04;;;;;;;70.00;62.90;;;;;;;-3.24;100.00;99602.79;109884;1287;22049;-83
2024/01/30 02:26:37;;;;;;;62.10;56.30;;;;;;;-3.25;100.00;99599.52;109711;1267;22684;31
2024/01/30 02:29:05;;;;;;;55.40;49.50;;;;;;;-3.24;100.00;99598.92;109636;1286;22571;-92
2024/01/30 02:31:33;;;;;;;57.10;51.20;;;;;;;-3.27;100.00;99600.20;109367;1284;22481;-92
2024/01/30 02:34:01;;;;;;;70.30;54.40;;;;;;;-3.32;100.00;99599.45;109670;1287;22377;-87
2024/01/30 02:36:29;;;;;;;55.30;46.90;;;;;;;-3.32;100.00;99599.41;109778;1264;22105;-89
2024/01/30 02:38:57;;;;;;;53.80;45.60;;;;;;;-3.29;100.00;99598.95;109773;1286;22673;-91
2024/01/30 02:41:25;;;;;;;60.00;46.80;;;;;;;-3.30;100.00;99596.77;109647;1286;23438;-93
2024/01/30 02:43:52;;;;;;;56.90;48.90;;;;;;;-3.29;100.00;99596.91;109619;1286;22105;-90
2024/01/30 02:46:21;;;;;;;61.90;52.60;;;;;;;-3.32;100.00;99597.69;109503;1277;25526;-90
2024/01/30 02:48:49;;;;;;;62.80;50.90;;;;;;;-3.34;100.00;99601.48;109507;1278;22553;-89
2024/01/30 02:51:17;;;;;;;58.20;47.30;;;;;;;-3.42;100.00;99599.63;109811;1279;22082;-85
2024/01/30 02:53:45;;;;;;;63.80;53.10;;;;;;;-3.40;100.00;99598.27;109910;1286;23994;-91
2024/01/30 02:56:13;;;;;;;57.80;49.80;;;;;;;-3.36;100.00;99601.98;109646;1286;22094;-90
2024/01/30 02:58:41;;;;;;;57.30;49.80;;;;;;;-3.33;100.00;99602.41;109587;1284;23116;-84
2024/01/30 03:01:09;;;;;;;67.30;56.90;;;;;;;-3.32;100.00;99602.84;109211;1286;22560;-90
2024/01/30 03:03:37;;;;;;;71.30;55.80;;;;;;;-3.40;100.00;99596.27;109137;1278;22501;-92
2024/01/30 03:06:07;;;;;;;69.50;55.20;;;;;;;-3.47;100.00;99589.32;109536;1287;22223;-88
2024/01/30 03:08:35;;;;;;;71.00;55.40;;;;;;;-3.55;100.00;99584.91;109614;1286;22618;-90
2024/01/30 03:11:03;;;;;;;71.50;57.60;;;;;;;-3.56;100.00;99586.98;109418;1286;22581;-91
2024/01/30 03:13:30;;;;;;;62.30;47.50;;;;;;;-3.55;100.00;99589.89;109205;1280;25421;-93
2024/01/30 03:15:58;;;;;;;59.90;53.50;;;;;;;-3.56;100.00;99590.70;109157;1286;25410;-90
2024/01/30 03:18:26;;;;;;;68.40;60.30;;;;;;;-3.51;100.00;99586.95;109128;1286;23854;-91
2024/01/30 03:20:54;;;;;;;76.80;58.10;;;;;;;-3.51;100.00;99590.61;109168;1287;24453;-92
2024/01/30 03:23:22;;;;;;;61.90;52.10;;;;;;;-3.53;100.00;99582.91;109595;1276;22585;-89
2024/01/30 03:25:50;;;;;;;61.70;48.70;;;;;;;-3.52;100.00;99580.16;109790;1282;22578;-89
2024/01/30 03:28:18;;;;;;;60.20;51.30;;;;;;;-3.51;100.00;99578.19;109754;1281;22036;-88
2024/01/30 03:30:46;;;;;;;60.60;52.40;;;;;;;-3.49;100.00;99581.97;109760;1286;22566;-88
2024/01/30 03:33:14;;;;;;;65.50;58.50;;;;;;;-3.47;100.00;99585.65;109637;1286;22593;-91
2024/01/30 03:35:42;;;;;;;64.60;56.70;;;;;;;-3.48;100.00;99589.40;109504;1284;22664;-93
2024/01/30 03:38:10;;;;;;;64.70;57.10;;;;;;;-3.49;100.00;99585.30;109661;1286;22299;-87
2024/01/30 03:40:38;;;;;;;63.90;56.60;;;;;;;-3.54;100.00;99580.29;109586;1284;22607;-91
2024/01/30 03:43:06;;;;;;;61.40;54.40;;;;;;;-3.59;100.00;99583.83;109762;1286;22556;-89
2024/01/30 03:45:34;;;;;;;59.10;52.50;;;;;;;-3.61;100.00;99583.70;109743;1284;22630;-89
2024/01/30 03:48:02;;;;;;;60.80;51.10;;;;;;;-3.61;100.00;99583.79;109706;1278;24043;-87
2024/01/30 03:50:30;;;;;;;57.50;51.20;;;;;;;-3.57;100.00;99582.05;109747;1286;22670;-92
2024/01/30 03:52:58;;;;;;;58.10;51.70;;;;;;;-3.57;100.00;99583.20;109501;1284;22724;-93
2024/01/30 03:55:26;;;;;;;58.20;51.90;;;;;;;-3.56;100.00;99583.77;109567;1286;22244;-92
2024/01/30 03:57:54;;;;;;;59.60;52.70;;;;;;;-3.55;100.00;99585.95;109584;1286;22182;-91
2024/01/30 04:00:23;;;;;;;57.50;51.00;;;;;;;-3.61;100.00;99584.85;109694;1279;23251;-86
2024/01/30 04:02:59;;;;;;;54.60;48.40;;;;;;;-3.63;100.00;99586.50;109751;1264;22377;31
2024/01/30 04:05:33;;;;;;;58.70;52.40;;;;;;;-3.61;100.00;99591.41;109810;1270;22706;31
2024/01/30 04:08:06;;;;;;;55.60;50.00;;;;;;;-3.62;100.00;99588.52;108729;1266;22303;31
2024/01/30 04:10:40;;;;;;;59.60;53.70;;;;;;;-3.56;100.00;99585.70;110019;1264;22418;31
2024/01/30 04:13:13;;;;;;;63.70;56.80;;;;;;;-3.49;100.00;99580.35;109960;1270;22625;31
2024/01/30 04:15:47;;;;;;;77.00;69.40;;;;;;;-3.58;100.00;99582.27;109889;1264;22739;31
2024/01/30 04:18:20;;;;;;;67.80;57.90;;;;;;;-3.63;100.00;99580.57;93696;1269;22752;-85
2024/01/30 04:20:56;;;;;;;56.90;50.70;;;;;;;-3.70;100.00;99578.83;110027;1265;22797;31
2024/01/30 04:23:29;;;;;;;57.10;49.10;;;;;;;-3.76;100.00;99572.27;109972;1269;22449;31
2024/01/30 04:26:03;;;;;;;54.70;48.10;;;;;;;-3.74;100.00;99584.29;101193;1269;22341;-84
2024/01/30 04:28:36;;;;;;;63.90;57.40;;;;;;;-3.76;100.00;99581.60;110152;1263;22210;31
2024/01/30 04:31:13;;;;;;;61.20;54.70;;;;;;;-3.77;100.00;99581.36;109809;1270;22591;31
2024/01/30 04:33:46;;;;;;;61.30;55.00;;;;;;;-3.80;100.00;99586.23;95497;1263;22450;-84
2024/01/30 04:36:22;;;;;;;77.90;67.90;;;;;;;-3.80;100.00;99581.44;110066;1270;22510;31
2024/01/30 04:38:56;;;;;;;74.60;64.80;;;;;;;-3.91;100.00;99574.25;110037;1270;22827;31
2024/01/30 04:41:31;;;;;;;68.80;61.30;;;;;;;-3.84;100.00;99584.23;109868;1271;22786;31
2024/01/30 04:44:04;;;;;;;62.90;56.30;;;;;;;-3.84;100.00;99580.84;100263;1265;22377;-86
2024/01/30 04:46:38;;;;;;;65.60;59.10;;;;;;;-3.81;100.00;99585.15;98737;1267;22918;31
2024/01/30 04:49:11;;;;;;;61.50;55.10;;;;;;;-3.85;100.00;99586.08;109640;1267;22659;31
2024/01/30 04:51:45;;;;;;;64.50;57.70;;;;;;;-3.86;100.00;99584.79;104063;1271;22338;31
2024/01/30 04:54:18;;;;;;;64.70;57.90;;;;;;;-3.86;100.00;99586.00;109957;1267;22563;31
2024/01/30 04:56:52;;;;;;;65.50;59.00;;;;;;;-3.86;100.00;99587.88;109817;1263;22338;31
2024/01/30 04:59:20;;;;;;;60.10;53.90;;;;;;;-3.85;100.00;99584.33;109638;1267;22643;-87
2024/01/30 05:01:48;;;;;;;64.10;57.50;;;;;;;-3.86;100.00;99576.46;109611;1269;22525;-88
2024/01/30 05:04:17;;;;;;;66.80;59.90;;;;;;;-3.89;100.00;99578.27;109706;1286;22083;-88
2024/01/30 05:06:48;;;;;;;70.70;63.80;;;;;;;-3.96;100.00;99580.86;109700;1286;22582;-87
2024/01/30 05:09:16;;;;;;;59.40;52.50;;;;;;;-4.00;100.00;99580.92;109745;1268;22324;-86
2024/01/30 05:11:49;;;;;;;67.10;60.70;;;;;;;-3.98;100.00;99580.41;109742;1265;22341;31
2024/01/30 05:14:17;;;;;;;66.00;58.20;;;;;;;-3.96;100.00;99584.06;109790;1264;22555;-89
2024/01/30 05:16:51;;;;;;;59.70;53.50;;;;;;;-3.94;100.00;99584.41;109726;1270;22565;-89
2024/01/30 05:19:20;;;;;;;60.50;54.70;;;;;;;-3.93;100.00;99581.63;108539;1265;22417;-88
2024/01/30 05:21:53;;;;;;;62.50;56.30;;;;;;;-3.88;100.00;99583.21;109683;1266;22333;31
2024/01/30 05:24:21;;;;;;;61.10;54.90;;;;;;;-3.90;100.00;99581.00;109629;1270;22209;-89
2024/01/30 05:26:57;;;;;;;60.90;54.70;;;;;;;-3.97;100.00;99581.30;109612;1270;24929;31
2024/01/30 05:29:32;;;;;;;71.00;63.80;;;;;;;-4.00;100.00;99581.88;109496;1264;22528;31
2024/01/30 05:32:07;;;;;;;60.10;53.80;;;;;;;-4.07;100.00;99583.46;109699;1268;23935;-87
2024/01/30 05:34:35;;;;;;;60.40;51.80;;;;;;;-4.06;100.00;99579.52;109747;1269;22578;-88
2024/01/30 05:37:08;;;;;;;61.90;55.40;;;;;;;-4.07;100.00;99577.69;109770;1264;23552;31
2024/01/30 05:39:41;;;;;;;56.90;51.10;;;;;;;-4.02;100.00;99576.59;95101;1267;22478;-84
2024/01/30 05:42:17;;;;;;;51.10;45.90;;;;;;;-3.91;100.00;99577.14;109984;1264;22799;31
2024/01/30 05:44:45;;;;;;;67.00;60.10;;;;;;;-3.80;100.00;99576.23;108755;1267;22560;-90
2024/01/30 05:47:13;;;;;;;63.30;56.40;;;;;;;-3.81;100.00;99574.42;108298;1264;22559;-92
2024/01/30 05:49:41;;;;;;;64.00;57.40;;;;;;;-3.86;100.00;99570.70;109644;1287;22638;-86
2024/01/30 05:52:09;;;;;;;58.80;52.40;;;;;;;-3.82;100.00;99571.55;109587;1280;22729;-86
2024/01/30 05:54:38;;;;;;;61.20;55.00;;;;;;;-3.75;100.00;99571.48;109725;1267;22397;-88
2024/01/30 05:57:14;;;;;;;75.00;67.70;;;;;;;-3.75;100.00;99573.53;109783;1269;22211;31
2024/01/30 05:59:41;;;;;;;65.70;59.00;;;;;;;-3.86;100.00;99576.95;109974;1286;22221;-83
2024/01/30 06:02:13;;;;;;;60.20;54.00;;;;;;;-3.94;100.00;99578.04;110016;1263;22232;-83
2024/01/30 06:04:46;;;;;;;54.70;49.20;;;;;;;-4.00;100.00;99581.29;109982;1268;22844;-90
2024/01/30 06:07:20;;;;;;;50.20;45.30;;;;;;;-4.03;100.00;99582.41;109876;1269;23526;31
2024/01/30 06:09:48;;;;;;;46.20;41.70;;;;;;;-4.04;100.00;99583.33;109628;1285;23617;-93
2024/01/30 06:12:16;;;;;;;44.70;40.20;;;;;;;-4.04;100.00;99585.10;109596;1273;22709;-86
2024/01/30 06:14:44;;;;;;;65.20;59.20;;;;;;;-4.03;100.00;99590.44;109749;1268;22061;-89
2024/01/30 06:17:14;;;;;;;61.00;55.60;;;;;;;-4.00;100.00;99587.67;109474;1273;22597;-89
2024/01/30 06:19:42;;;;;;;52.20;46.80;;;;;;;-3.95;100.00;99591.16;109732;1264;22562;-87
2024/01/30 06:22:16;;;;;;;51.50;46.50;;;;;;;-3.87;100.00;99593.67;109725;1266;22410;31
2024/01/30 06:24:50;;;;;;;49.90;45.20;;;;;;;-3.91;100.00;99594.89;109442;1265;22796;-90
2024/01/30 06:27:23;;;;;;;53.80;48.40;;;;;;;-3.95;100.00;99596.95;108034;1265;22407;31
2024/01/30 06:29:52;;;;;;;72.60;65.80;;;;;;;-3.90;100.00;99594.27;104881;1269;22428;-90
2024/01/30 06:32:20;;;;;;;77.50;70.80;;;;;;;-3.84;100.00;99594.39;107678;1284;22773;-94
2024/01/30 06:34:48;;;;;;;66.30;59.90;;;;;;;-3.74;100.00;99595.23;107121;1271;22589;-92
2024/01/30 06:37:16;;;;;;;63.90;57.80;;;;;;;-3.68;100.00;99596.65;107706;1284;22668;-84
2024/01/30 06:39:44;;;;;;;70.70;61.30;;;;;;;-3.76;100.00;99590.92;106563;1286;22566;-86
2024/01/30 06:42:12;;;;;;;244.20;132.50;;;;;;;-3.84;100.00;99586.96;106557;1280;25536;-86
2024/01/30 06:44:40;;;;;;;294.00;156.10;;;;;;;-3.86;100.00;99591.39;106854;1283;25247;-86
2024/01/30 06:47:08;;;;;;;312.20;163.40;;;;;;;-3.82;100.00;99594.73;106771;1280;25436;-87
2024/01/30 06:49:38;;;;;;;222.90;121.90;;;;;;;-3.81;100.00;99594.83;106942;1286;22648;-88
2024/01/30 06:52:06;;;;;;;298.40;168.90;;;;;;;-3.78;100.00;99591.96;108022;1272;22844;-91
2024/01/30 06:54:34;;;;;;;213.20;125.30;;;;;;;-3.92;100.00;99563.45;107774;1286;22638;-90
2024/01/30 06:57:11;;;;;;;157.20;98.90;;;;;;;-3.71;100.00;99589.41;108930;1267;22560;31
2024/01/30 06:59:43;;;;;;;159.00;99.90;;;;;;;-3.60;100.00;99587.98;108073;1289;24037;-87
2024/01/30 07:02:12;;;;;;;143.60;94.20;;;;;;;-3.58;100.00;99592.83;108568;1282;24325;-91
2024/01/30 07:04:41;;;;;;;105.90;78.10;;;;;;;-3.57;100.00;99597.10;107006;1286;22671;-86
2024/01/30 07:07:14;;;;;;;97.20;77.60;;;;;;;-3.53;100.00;99589.29;107339;1286;22601;-87
2024/01/30 07:09:43;;;;;;;90.80;75.90;;;;;;;-3.47;100.00;99588.92;108059;1284;22647;-87
2024/01/30 07:12:14;;;;;;;88.20;78.90;;;;;;;-3.36;100.00;99591.60;109129;1266;22646;-89
2024/01/30 07:14:43;;;;;;;99.00;88.10;;;;;;;-3.23;100.00;99597.10;108267;1285;25451;-92
2024/01/30 07:17:17;;;;;;;142.70;112.50;;;;;;;-3.11;100.00;99599.33;108209;1265;22528;31
2024/01/30 07:19:45;;;;;;;112.40;99.20;;;;;;;-2.97;100.00;99596.89;107209;1283;22729;-91
2024/01/30 07:22:13;;;;;;;114.60;101.50;;;;;;;-2.84;100.00;99593.15;106588;1287;22991;-89
2024/01/30 07:24:45;;;;;;;103.40;92.50;;;;;;;-2.76;100.00;99591.38;106235;1287;22566;-88
2024/01/30 07:27:17;;;;;;;71.60;65.20;;;;;;;-2.67;100.00;99594.61;106669;1286;22781;-87
2024/01/30 07:29:49;;;;;;;65.20;59.10;;;;;;;-2.53;100.00;99599.39;106516;1280;24322;-85
2024/01/30 07:32:18;;;;;;;52.00;47.00;;;;;;;-2.37;100.00;99601.35;106431;1280;24318;-85
2024/01/30 07:34:46;;;;;;;56.90;51.10;;;;;;;-2.20;100.00;99601.06;107760;1274;23141;-85
2024/01/30 07:37:33;;;;;;;61.60;55.20;;;;;;;-2.03;100.00;99598.05;108223;1287;25963;-86
2024/01/30 07:40:06;;;;;;;74.70;67.50;;;;;;;-1.92;100.00;99596.98;107547;1281;25432;-91
2024/01/30 07:42:56;;;;;;;;;;;;;;;;;;;;;
2024/01/30 07:48:53;;;;;;;57.60;52.10;;;;;;;-1.59;100.00;99591.59;109762;1270;22538;31
2024/01/30 07:51:31;;;;;;;52.80;47.50;;;;;;;-1.43;100.00;99589.73;109587;1288;23965;-93
2024/01/30 07:54:03;;;;;;;46.50;42.10;;;;;;;-1.28;100.00;99593.71;109423;1290;22604;-93
2024/01/30 07:56:31;;;;;;;47.40;42.80;;;;;;;-1.10;100.00;99594.84;109248;1289;22696;-92
2024/01/30 07:59:21;;;;;;;42.90;38.60;;;;;;;-0.93;100.00;99592.39;109583;1269;22426;31
2024/01/30 08:08:45;;;;;;;;;;;;;;;;;;;;;
2024/01/30 08:11:34;;;;;;;53.00;47.80;;;;;;;-0.25;100.00;99584.83;96917;1269;22973;31
2024/01/30 08:14:18;;;;;;;46.90;42.40;;;;;;;-0.09;100.00;99584.94;109514;1283;22565;-94
2024/01/30 08:16:46;;;;;;;46.60;41.90;;;;;;;0.07;100.00;99588.84;109478;1289;22572;-92
2024/01/30 08:19:15;;;;;;;48.40;43.60;;;;;;;0.25;100.00;99594.91;109276;1289;22599;-93
2024/01/30 08:21:43;;;;;;;47.30;42.40;;;;;;;0.40;100.00;99598.34;109039;1286;22615;-93
2024/01/30 08:24:12;;;;;;;50.30;45.40;;;;;;;0.52;100.00;99597.46;109379;1286;22186;-93
2024/01/30 08:26:40;;;;;;;40.70;36.50;;;;;;;0.59;100.00;99596.84;109233;1289;22497;-94
2024/01/30 08:29:09;;;;;;;41.70;37.40;;;;;;;0.64;100.00;99600.59;108998;1289;22553;-93
2024/01/30 08:31:37;;;;;;;44.50;40.10;;;;;;;0.72;100.00;99601.42;109057;1289;22544;-95
2024/01/30 08:34:05;;;;;;;52.50;47.30;;;;;;;0.77;100.00;99603.30;109210;1289;24154;-92
2024/01/30 08:36:34;;;;;;;50.90;45.50;;;;;;;0.83;100.00;99605.22;109285;1286;22585;-93
2024/01/30 08:39:02;;;;;;;38.70;34.90;;;;;;;0.89;100.00;99600.09;109281;1289;23885;-93
2024/01/30 08:41:35;;;;;;;35.80;32.20;;;;;;;0.96;100.00;99595.27;109245;1289;24258;-93
2024/01/30 08:44:04;;;;;;;38.20;34.30;;;;;;;1.06;100.00;99601.89;109288;1289;22587;-93
2024/01/30 08:46:32;;;;;;;42.50;38.00;;;;;;;1.10;100.00;99604.91;109519;1289;22111;-94
2024/01/30 08:52:19;;;;;;;37.50;33.80;;;;;;;1.18;100.00;99607.27;109662;1267;22575;-92
2024/01/30 08:54:47;;;;;;;34.80;31.20;;;;;;;1.20;100.00;99603.98;109206;1285;22554;-92
2024/01/30 08:57:16;;;;;;;32.20;29.00;;;;;;;1.27;100.00;99602.30;108921;1265;22543;-92
2024/01/30 08:59:45;;;;;;;31.50;28.20;;;;;;;1.33;100.00;99604.38;108900;1284;22675;-93
2024/01/30 09:06:27;;;;;;;37.90;34.30;;;;;;;1.49;100.00;99602.61;108131;1285;22579;-92
2024/01/30 09:08:57;;;;;;;42.10;37.60;;;;;;;1.53;100.00;99603.68;109394;1285;22340;-92
2024/01/30 09:15:52;;;;;;;42.20;38.20;;;;;;;1.64;99.77;99604.55;108409;1280;22637;-94
2024/01/30 09:18:21;;;;;;;42.00;37.80;;;;;;;1.73;99.41;99604.13;108145;1286;22524;-92
2024/01/30 09:20:50;;;;;;;39.90;36.00;;;;;;;1.81;99.92;99601.67;107640;1286;23311;-91
2024/01/30 09:23:19;;;;;;;42.50;38.10;;;;;;;1.87;99.45;99600.38;107682;1286;22498;-90
2024/01/30 09:25:48;;;;;;;48.20;43.00;;;;;;;1.92;99.35;99598.59;107758;1286;22589;-91
2024/01/30 09:28:19;;;;;;;49.40;44.50;;;;;;;1.94;98.82;99595.38;108837;1279;22546;-90
2024/01/30 09:30:48;;;;;;;44.60;40.20;;;;;;;2.01;99.84;99599.20;109460;1285;22565;-91
2024/01/30 09:33:17;;;;;;;44.40;40.20;;;;;;;2.07;99.75;99602.27;107820;1286;22743;-92
2024/01/30 09:35:48;;;;;;;41.60;37.20;;;;;;;2.14;99.16;99598.97;107548;1286;22481;-91
2024/01/30 09:38:17;;;;;;;44.80;40.00;;;;;;;2.17;99.41;99595.98;107345;1286;22563;-91
2024/01/30 09:40:53;;;;;;;47.00;42.20;;;;;;;2.31;99.69;99594.03;107061;1284;23371;-91
2024/01/30 09:43:23;;;;;;;46.60;41.50;;;;;;;2.42;99.66;99591.42;107380;1285;22566;-91
2024/01/30 09:45:56;;;;;;;41.50;37.60;;;;;;;2.52;98.07;99594.30;107344;1286;22639;-92
2024/01/30 09:48:26;;;;;;;42.00;37.50;;;;;;;2.56;96.16;99601.83;107576;1280;22667;-91
2024/01/30 09:50:55;;;;;;;47.50;42.50;;;;;;;2.56;96.04;99596.50;107648;1286;22587;-92
2024/01/30 09:53:52;;;;;;;72.40;47.30;;;;;;;2.57;95.62;99593.40;106865;1287;22730;-92
2024/01/30 09:56:22;;;;;;;55.90;42.90;;;;;;;2.60;94.11;99589.09;107164;1286;257062;-92
2024/01/30 09:58:50;;;;;;;61.90;42.40;;;;;;;2.61;93.51;99585.94;106930;1286;22595;-92
2024/01/30 10:01:18;;;;;;;41.40;37.10;;;;;;;2.64;92.79;99584.42;107142;1286;25431;-92
2024/01/30 10:03:50;;;;;;;45.00;40.50;;;;;;;2.69;94.30;99580.15;107772;1285;22878;-93
2024/01/30 10:06:19;;;;;;;55.50;50.00;;;;;;;2.79;94.12;99582.48;107566;1285;25433;-92
2024/01/30 10:09:40;;;;;;;35.30;31.80;;;;;;;2.86;93.75;99574.25;107848;1285;26486;-92
2024/01/30 10:12:12;;;;;;;39.40;35.10;;;;;;;2.98;92.35;99572.66;107458;1285;25298;-92
2024/01/30 10:14:41;;;;;;;29.60;26.60;;;;;;;3.09;92.50;99566.33;107044;1286;22648;-92
2024/01/30 10:17:10;;;;;;;31.80;27.40;;;;;;;3.14;89.48;99565.53;106908;1286;23258;-91
2024/01/30 10:20:05;;;;;;;34.30;29.30;;;;;;;3.17;91.05;99566.02;107001;1285;24260;-91
2024/01/30 10:26:20;;;;;;;30.90;27.40;;;;;;;3.31;87.26;99562.90;106916;1286;25445;-91
2024/01/30 10:28:51;;;;;;;30.00;26.80;;;;;;;3.35;86.93;99558.84;106968;1286;22578;-90
2024/01/30 10:31:20;;;;;;;30.10;27.00;;;;;;;3.41;87.72;99560.16;108261;1285;22624;-90
2024/01/30 10:33:48;;;;;;;31.70;28.40;;;;;;;3.47;86.11;99556.86;108263;1278;22674;-90
2024/01/30 10:36:18;;;;;;;32.60;29.10;;;;;;;3.53;86.10;99548.06;106616;1285;22560;-90
2024/01/30 10:38:51;;;;;;;32.30;26.80;;;;;;;3.61;85.36;99542.97;106510;1265;25295;-90
2024/01/30 10:41:27;;;;;;;30.50;26.60;;;;;;;3.66;84.73;99541.39;107182;1286;23343;-89
2024/01/30 10:44:08;;;;;;;28.20;25.30;;;;;;;3.72;85.73;99541.85;108127;1286;22640;-89
2024/01/30 10:46:44;;;;;;;29.80;26.80;;;;;;;3.83;85.17;99543.71;106442;1286;22592;-88
2024/01/30 10:49:14;;;;;;;30.80;27.50;;;;;;;3.91;83.96;99537.48;106741;1286;22554;-89
2024/01/30 10:51:44;;;;;;;31.10;28.00;;;;;;;3.99;84.67;99534.17;106739;1285;24353;-89
2024/01/30 10:54:13;;;;;;;30.00;27.10;;;;;;;4.06;82.91;99533.11;106601;1286;25412;-88
2024/01/30 10:56:43;;;;;;;29.50;26.50;;;;;;;4.07;83.29;99523.41;106559;1286;24354;-89
2024/01/30 11:03:38;;;;;;;29.80;26.80;;;;;;;4.33;84.20;99520.27;106626;1285;22518;-88
2024/01/30 11:06:30;;;;;;;32.10;28.90;;;;;;;4.42;83.69;99520.11;106581;1285;22719;-88
2024/01/30 11:10:40;;;;;;;32.80;28.30;;;;;;;4.50;82.66;99505.85;106350;1290;22585;-89
2024/01/30 11:13:14;;;;;;;38.40;30.90;;;;;;;4.68;83.17;99513.59;106208;1290;25307;-87
2024/01/30 11:15:43;;;;;;;28.20;25.30;;;;;;;4.73;80.81;99507.98;106305;1282;22743;-87
2024/01/30 11:19:04;;;;;;;28.60;25.60;;;;;;;4.76;80.82;99508.36;106174;1290;22608;-87
2024/01/30 11:22:48;;;;;;;33.20;29.70;;;;;;;4.87;80.87;99500.27;106291;1278;22604;-87
2024/01/30 11:25:17;;;;;;;32.80;29.20;;;;;;;4.94;81.18;99495.14;106142;1290;22565;-88
2024/01/30 11:27:47;;;;;;;34.00;29.70;;;;;;;5.04;78.76;99495.37;106324;1285;24093;-87
2024/01/30 11:30:32;;;;;;;32.40;29.30;;;;;;;5.10;77.90;99492.83;106585;1278;25433;-86
2024/01/30 11:33:11;;;;;;;34.50;31.00;;;;;;;5.47;80.83;99487.17;106488;1285;25489;-88
2024/01/30 11:35:41;;;;;;;31.80;28.40;;;;;;;7.15;81.91;99483.77;106597;1285;22561;-87
2024/01/30 11:38:13;;;;;;;33.90;27.70;;;;;;;8.79;78.85;99483.73;106499;1285;24394;-86
2024/01/30 11:40:41;;;;;;;31.50;28.10;;;;;;;9.95;77.70;99481.27;106386;1284;22575;-87
2024/01/30 11:43:10;;;;;;;37.20;33.20;;;;;;;10.71;72.98;99479.77;106445;1280;22569;-86
2024/01/30 11:45:39;;;;;;;32.70;27.30;;;;;;;10.95;74.83;99480.55;106463;1285;24249;-87
2024/01/30 11:48:10;;;;;;;30.00;26.70;;;;;;;10.92;77.73;99472.44;106519;1286;24265;-86
2024/01/30 11:50:42;;;;;;;28.90;24.20;;;;;;;10.50;70.53;99474.55;106532;1286;24812;-87
2024/01/30 11:53:11;;;;;;;31.60;28.20;;;;;;;10.14;73.63;99456.39;106527;1286;25291;-87
2024/01/30 12:00:18;;;;;;;27.20;24.30;;;;;;;11.92;74.48;99461.08;106503;1286;22574;-87
2024/01/30 12:02:51;;;;;;;40.70;35.90;;;;;;;12.86;75.68;99460.55;106686;1278;24227;-87
2024/01/30 12:05:20;;;;;;;33.00;27.70;;;;;;;13.67;72.78;99461.29;106530;1281;26378;-87